Time,TemperatureF,DewpointF,PressureIn,WindDirection,WindDirectionDegrees,WindSpeedMPH,WindSpeedGustMPH,Humidity,HourlyPrecipIn,Conditions,Clouds,dailyrainin,SoftwareType,DateUTC
2013-11-25 00:08:00,14.5,-2.0,30.19,WSW,243,12.0,14.0,48,0.00,,,0.00,weatherlink.com 1.10,2013-11-25 05:08:00,
2013-11-25 00:23:00,14.4,-3.0,30.20,WNW,284,5.0,18.0,47,0.00,,,0.00,weatherlink.com 1.10,2013-11-25 05:23:00,
2013-11-25 00:39:00,13.9,-2.0,30.21,WSW,242,11.0,12.0,49,0.00,,,0.00,weatherlink.com 1.10,2013-11-25 05:39:00,
2013-11-25 00:54:00,13.4,-2.0,30.21,WNW,284,5.0,9.0,50,0.00,,,0.00,weatherlink.com 1.10,2013-11-25 05:54:00,
2013-11-25 01:09:00,13.3,-3.0,30.22,West,271,3.0,11.0,48,0.00,,,0.00,weatherlink.com 1.10,2013-11-25 06:09:00,
2013-11-25 01:24:00,13.2,-3.0,30.23,West,281,4.0,10.0,49,0.00,,,0.00,weatherlink.com 1.10,2013-11-25 06:24:00,
2013-11-25 01:39:00,13.0,-3.0,30.23,WNW,282,2.0,14.0,50,0.00,,,0.00,weatherlink.com 1.10,2013-11-25 06:39:00,
2013-11-25 01:54:00,13.0,-3.0,30.23,West,265,4.0,14.0,50,0.00,,,0.00,weatherlink.com 1.10,2013-11-25 06:54:00,
2013-11-25 02:09:00,13.2,-3.0,30.23,West,275,3.0,14.0,48,0.00,,,0.00,weatherlink.com 1.10,2013-11-25 07:09:00,
2013-11-25 02:24:00,13.0,-3.0,30.23,WNW,300,4.0,7.0,48,0.00,,,0.00,weatherlink.com 1.10,2013-11-25 07:24:00,
2013-11-25 02:39:00,13.2,-3.0,30.24,West,281,9.0,13.0,48,0.00,,,0.00,weatherlink.com 1.10,2013-11-25 07:39:00,
2013-11-25 02:55:00,12.8,-4.0,30.25,West,271,3.0,10.0,48,0.00,,,0.00,weatherlink.com 1.10,2013-11-25 07:55:00,
2013-11-25 03:09:00,12.5,-4.0,30.26,West,280,3.0,8.0,48,0.00,,,0.00,weatherlink.com 1.10,2013-11-25 08:09:00,
2013-11-25 03:24:00,12.3,-4.0,30.27,WSW,257,5.0,12.0,49,0.00,,,0.00,weatherlink.com 1.10,2013-11-25 08:24:00,
2013-11-25 03:39:00,12.2,-4.0,30.27,WSW,253,0.0,5.0,48,0.00,,,0.00,weatherlink.com 1.10,2013-11-25 08:39:00,
2013-11-25 03:54:00,11.8,-4.0,30.27,WNW,293,5.0,9.0,50,0.00,,,0.00,weatherlink.com 1.10,2013-11-25 08:54:00,
2013-11-25 04:10:00,11.7,-4.0,30.27,NW,310,4.0,6.0,49,0.00,,,0.00,weatherlink.com 1.10,2013-11-25 09:10:00,
2013-11-25 04:25:00,11.9,-4.0,30.29,West,273,1.0,10.0,48,0.00,,,0.00,weatherlink.com 1.10,2013-11-25 09:25:00,
2013-11-25 04:40:00,12.1,-5.0,30.29,West,280,4.0,12.0,47,0.00,,,0.00,weatherlink.com 1.10,2013-11-25 09:40:00,
2013-11-25 04:55:00,12.1,-5.0,30.29,West,270,2.0,10.0,46,0.00,,,0.00,weatherlink.com 1.10,2013-11-25 09:55:00,
2013-11-25 05:10:00,12.3,-5.0,30.29,WNW,302,8.0,16.0,46,0.00,,,0.00,weatherlink.com 1.10,2013-11-25 10:10:00,
2013-11-25 05:25:00,12.7,-6.0,30.30,West,275,4.0,15.0,44,0.00,,,0.00,weatherlink.com 1.10,2013-11-25 10:25:00,
2013-11-25 05:40:00,12.8,-5.0,30.29,WNW,291,3.0,12.0,45,0.00,,,0.00,weatherlink.com 1.10,2013-11-25 10:40:00,
2013-11-25 05:55:00,13.1,-5.0,30.30,West,262,6.0,16.0,44,0.00,,,0.00,weatherlink.com 1.10,2013-11-25 10:55:00,
2013-11-25 06:10:00,13.4,-5.0,30.30,West,281,11.0,19.0,44,0.00,,,0.00,weatherlink.com 1.10,2013-11-25 11:10:00,
2013-11-25 06:25:00,13.6,-5.0,30.32,West,269,14.0,22.0,44,0.00,,,0.00,weatherlink.com 1.10,2013-11-25 11:25:00,
2013-11-25 06:40:00,13.6,-5.0,30.32,NW,322,8.0,17.0,44,0.00,,,0.00,weatherlink.com 1.10,2013-11-25 11:40:00,
2013-11-25 06:55:00,13.4,-6.0,30.32,SW,230,10.0,22.0,42,0.00,,,0.00,weatherlink.com 1.10,2013-11-25 11:55:00,
2013-11-25 07:10:00,13.1,-6.0,30.34,WNW,290,5.0,12.0,43,0.00,,,0.00,weatherlink.com 1.10,2013-11-25 12:10:00,
2013-11-25 07:26:00,12.9,-5.0,30.34,West,274,5.0,15.0,45,0.00,,,0.00,weatherlink.com 1.10,2013-11-25 12:26:00,
2013-11-25 07:41:00,12.8,-5.0,30.35,West,281,3.0,10.0,45,0.00,,,0.00,weatherlink.com 1.10,2013-11-25 12:41:00,
2013-11-25 07:56:00,13.1,-5.0,30.36,WSW,250,2.0,16.0,45,0.00,,,0.00,weatherlink.com 1.10,2013-11-25 12:56:00,
2013-11-25 08:11:00,13.7,-5.0,30.36,SSW,210,9.0,17.0,43,0.00,,,0.00,weatherlink.com 1.10,2013-11-25 13:11:00,
2013-11-25 08:26:00,14.3,-5.0,30.35,West,280,5.0,14.0,42,0.00,,,0.00,weatherlink.com 1.10,2013-11-25 13:26:00,
2013-11-25 08:41:00,15.0,-5.0,30.35,WNW,287,3.0,15.0,41,0.00,,,0.00,weatherlink.com 1.10,2013-11-25 13:41:00,
2013-11-25 08:56:00,16.3,-5.0,30.36,WNW,290,2.0,10.0,39,0.00,,,0.00,weatherlink.com 1.10,2013-11-25 13:56:00,
2013-11-25 09:11:00,17.8,-5.0,30.36,WNW,292,5.0,7.0,36,0.00,,,0.00,weatherlink.com 1.10,2013-11-25 14:11:00,
2013-11-25 09:26:00,18.8,-5.0,30.36,West,266,4.0,8.0,35,0.00,,,0.00,weatherlink.com 1.10,2013-11-25 14:26:00,
2013-11-25 09:41:00,19.6,-5.0,30.37,West,267,1.0,9.0,34,0.00,,,0.00,weatherlink.com 1.10,2013-11-25 14:41:00,
2013-11-25 09:56:00,20.2,-6.0,30.37,NW,313,6.0,9.0,31,0.00,,,0.00,weatherlink.com 1.10,2013-11-25 14:56:00,
2013-11-25 10:11:00,20.5,-6.0,30.37,West,274,6.0,12.0,31,0.00,,,0.00,weatherlink.com 1.10,2013-11-25 15:11:00,
2013-11-25 10:26:00,20.8,-6.0,30.36,West,281,3.0,10.0,30,0.00,,,0.00,weatherlink.com 1.10,2013-11-25 15:26:00,
2013-11-25 10:42:00,21.2,-7.0,30.36,WNW,285,1.0,9.0,29,0.00,,,0.00,weatherlink.com 1.10,2013-11-25 15:42:00,
2013-11-25 10:57:00,22.1,-7.0,30.35,WNW,290,7.0,14.0,28,0.00,,,0.00,weatherlink.com 1.10,2013-11-25 15:57:00,
2013-11-25 11:12:00,22.3,-7.0,30.36,West,259,2.0,11.0,27,0.00,,,0.00,weatherlink.com 1.10,2013-11-25 16:12:00,
2013-11-25 11:27:00,22.6,-7.0,30.36,West,269,5.0,12.0,27,0.00,,,0.00,weatherlink.com 1.10,2013-11-25 16:27:00,
2013-11-25 11:42:00,23.1,-4.0,30.36,NNW,344,5.0,15.0,30,0.00,,,0.00,weatherlink.com 1.10,2013-11-25 16:42:00,
2013-11-25 11:57:00,23.6,-3.0,30.35,West,278,7.0,14.0,31,0.00,,,0.00,weatherlink.com 1.10,2013-11-25 16:57:00,
2013-11-25 12:12:00,25.3,0.0,30.35,WSW,239,6.0,11.0,33,0.00,,,0.00,weatherlink.com 1.10,2013-11-25 17:12:00,
2013-11-25 12:27:00,25.6,1.0,30.33,WNW,294,3.0,13.0,35,0.00,,,0.00,weatherlink.com 1.10,2013-11-25 17:27:00,
2013-11-25 12:42:00,26.4,3.0,30.32,NW,312,4.0,10.0,36,0.00,,,0.00,weatherlink.com 1.10,2013-11-25 17:42:00,
2013-11-25 12:57:00,26.9,4.0,30.32,West,269,7.0,15.0,38,0.00,,,0.00,weatherlink.com 1.10,2013-11-25 17:57:00,
2013-11-25 13:12:00,27.4,5.0,30.31,WNW,296,7.0,14.0,38,0.00,,,0.00,weatherlink.com 1.10,2013-11-25 18:12:00,
2013-11-25 13:27:00,27.7,6.0,30.32,WNW,302,8.0,17.0,39,0.00,,,0.00,weatherlink.com 1.10,2013-11-25 18:27:00,
2013-11-25 13:42:00,27.9,6.0,30.32,WNW,287,4.0,11.0,40,0.00,,,0.00,weatherlink.com 1.10,2013-11-25 18:42:00,
2013-11-25 13:57:00,28.8,8.0,30.32,SW,225,3.0,9.0,41,0.00,,,0.00,weatherlink.com 1.10,2013-11-25 18:57:00,
2013-11-25 14:13:00,28.4,6.0,30.32,West,266,4.0,8.0,38,0.00,,,0.00,weatherlink.com 1.10,2013-11-25 19:13:00,
2013-11-25 14:28:00,28.5,6.0,30.32,East,101,2.0,5.0,38,0.00,,,0.00,weatherlink.com 1.10,2013-11-25 19:28:00,
2013-11-25 14:43:00,28.2,5.0,30.31,WNW,302,2.0,8.0,38,0.00,,,0.00,weatherlink.com 1.10,2013-11-25 19:43:00,
2013-11-25 14:58:00,28.4,6.0,30.31,West,260,2.0,8.0,38,0.00,,,0.00,weatherlink.com 1.10,2013-11-25 19:58:00,
2013-11-25 15:13:00,28.5,6.0,30.32,WSW,246,5.0,5.0,39,0.00,,,0.00,weatherlink.com 1.10,2013-11-25 20:13:00,
2013-11-25 15:28:00,28.4,7.0,30.32,WSW,255,1.0,7.0,40,0.00,,,0.00,weatherlink.com 1.10,2013-11-25 20:28:00,
2013-11-25 15:43:00,28.2,8.0,30.33,SSW,194,2.0,9.0,42,0.00,,,0.00,weatherlink.com 1.10,2013-11-25 20:43:00,
2013-11-25 15:58:00,27.7,8.0,30.32,SW,232,1.0,6.0,43,0.00,,,0.00,weatherlink.com 1.10,2013-11-25 20:58:00,
2013-11-25 16:13:00,27.2,8.0,30.32,WSW,256,5.0,6.0,44,0.00,,,0.00,weatherlink.com 1.10,2013-11-25 21:13:00,
2013-11-25 16:28:00,26.6,8.0,30.32,SE,146,0.0,4.0,46,0.00,,,0.00,weatherlink.com 1.10,2013-11-25 21:28:00,
2013-11-25 16:43:00,25.9,9.0,30.33,SW,222,0.0,4.0,48,0.00,,,0.00,weatherlink.com 1.10,2013-11-25 21:43:00,
2013-11-25 16:58:00,25.6,9.0,30.33,SSW,204,2.0,3.0,50,0.00,,,0.00,weatherlink.com 1.10,2013-11-25 21:58:00,
2013-11-25 17:13:00,25.3,10.0,30.32,ESE,112,0.0,4.0,52,0.00,,,0.00,weatherlink.com 1.10,2013-11-25 22:13:00,
2013-11-25 17:28:00,25.0,10.0,30.32,SSW,203,0.0,3.0,53,0.00,,,0.00,weatherlink.com 1.10,2013-11-25 22:28:00,
2013-11-25 17:44:00,24.5,10.0,30.32,SSE,150,0.0,2.0,55,0.00,,,0.00,weatherlink.com 1.10,2013-11-25 22:44:00,
2013-11-25 17:59:00,24.1,10.0,30.32,East,94,0.0,1.0,56,0.00,,,0.00,weatherlink.com 1.10,2013-11-25 22:59:00,
2013-11-25 18:14:00,23.0,11.0,30.32,SE,127,0.0,1.0,60,0.00,,,0.00,weatherlink.com 1.10,2013-11-25 23:14:00,
2013-11-25 18:29:00,22.9,11.0,30.31,WSW,243,1.0,2.0,61,0.00,,,0.00,weatherlink.com 1.10,2013-11-25 23:29:00,
2013-11-25 18:44:00,23.8,12.0,30.31,ESE,117,2.0,5.0,61,0.00,,,0.00,weatherlink.com 1.10,2013-11-25 23:44:00,
2013-11-25 18:59:00,25.0,12.0,30.31,SE,146,1.0,2.0,59,0.00,,,0.00,weatherlink.com 1.10,2013-11-25 23:59:00,
2013-11-25 19:14:00,25.7,13.0,30.30,ESE,104,1.0,6.0,58,0.00,,,0.00,weatherlink.com 1.10,2013-11-26 00:14:00,
2013-11-25 19:29:00,25.9,13.0,30.30,NW,306,0.0,5.0,58,0.00,,,0.00,weatherlink.com 1.10,2013-11-26 00:29:00,
2013-11-25 19:44:00,26.2,13.0,30.29,West,269,0.0,7.0,58,0.00,,,0.00,weatherlink.com 1.10,2013-11-26 00:44:00,
2013-11-25 19:59:00,26.6,13.0,30.30,SSW,212,3.0,10.0,56,0.00,,,0.00,weatherlink.com 1.10,2013-11-26 00:59:00,
2013-11-25 20:14:00,26.7,13.0,30.30,NNW,328,1.0,7.0,56,0.00,,,0.00,weatherlink.com 1.10,2013-11-26 01:14:00,
2013-11-25 20:29:00,27.1,12.0,30.29,NNW,331,1.0,12.0,54,0.00,,,0.00,weatherlink.com 1.10,2013-11-26 01:29:00,
2013-11-25 20:44:00,27.1,13.0,30.28,WNW,283,2.0,11.0,55,0.00,,,0.00,weatherlink.com 1.10,2013-11-26 01:44:00,
2013-11-25 21:00:00,27.3,13.0,30.28,WSW,245,11.0,12.0,54,0.00,,,0.00,weatherlink.com 1.10,2013-11-26 02:00:00,
2013-11-25 21:15:00,27.4,13.0,30.27,WSW,245,0.0,9.0,54,0.00,,,0.00,weatherlink.com 1.10,2013-11-26 02:15:00,
2013-11-25 21:30:00,27.5,13.0,30.28,West,278,4.0,8.0,54,0.00,,,0.00,weatherlink.com 1.10,2013-11-26 02:30:00,
2013-11-25 21:45:00,27.6,13.0,30.27,South,175,3.0,12.0,54,0.00,,,0.00,weatherlink.com 1.10,2013-11-26 02:45:00,
2013-11-25 22:00:00,27.7,12.0,30.27,West,273,2.0,12.0,53,0.00,,,0.00,weatherlink.com 1.10,2013-11-26 03:00:00,
2013-11-25 22:15:00,27.8,13.0,30.26,WSW,240,0.0,6.0,53,0.00,,,0.00,weatherlink.com 1.10,2013-11-26 03:15:00,
2013-11-25 22:30:00,28.1,12.0,30.26,WSW,257,1.0,6.0,52,0.00,,,0.00,weatherlink.com 1.10,2013-11-26 03:30:00,
2013-11-25 22:45:00,28.2,12.0,30.26,SE,139,2.0,6.0,52,0.00,,,0.00,weatherlink.com 1.10,2013-11-26 03:45:00,
2013-11-25 23:00:00,28.2,12.0,30.26,SE,136,1.0,4.0,52,0.00,,,0.00,weatherlink.com 1.10,2013-11-26 04:00:00,
2013-11-25 23:15:00,28.1,13.0,30.26,SW,227,0.0,9.0,53,0.00,,,0.00,weatherlink.com 1.10,2013-11-26 04:15:00,
2013-11-25 23:30:00,28.0,13.0,30.26,SSW,200,1.0,3.0,53,0.00,,,0.00,weatherlink.com 1.10,2013-11-26 04:30:00,
2013-11-25 23:45:00,27.7,13.0,30.25,SSE,158,2.0,4.0,54,0.00,,,0.00,weatherlink.com 1.10,2013-11-26 04:45:00,